sensor_id;sensor_type;location;lat;lon;timestamp;temperature;humidity
2489;DHT22;1255;48.716;9.124;2022-11-20T00:00:37;4.60;99.90
2489;DHT22;1255;48.716;9.124;2022-11-20T00:03:03;4.50;99.90
2489;DHT22;1255;48.716;9.124;2022-11-20T00:05:33;4.50;99.90
2489;DHT22;1255;48.716;9.124;2022-11-20T00:08:00;4.50;99.90
2489;DHT22;1255;48.716;9.124;2022-11-20T00:10:26;4.50;99.90
2489;DHT22;1255;48.716;9.124;2022-11-20T00:12:53;4.50;99.90
2489;DHT22;1255;48.716;9.124;2022-11-20T00:15:20;4.50;99.90
2489;DHT22;1255;48.716;9.124;2022-11-20T00:17:47;4.50;99.90
2489;DHT22;1255;48.716;9.124;2022-11-20T00:20:14;4.40;99.90
2489;DHT22;1255;48.716;9.124;2022-11-20T00:22:42;4.40;99.90
2489;DHT22;1255;48.716;9.124;2022-11-20T00:25:09;4.40;99.90
2489;DHT22;1255;48.716;9.124;2022-11-20T00:27:36;4.40;99.90
2489;DHT22;1255;48.716;9.124;2022-11-20T00:30:04;4.40;99.90
2489;DHT22;1255;48.716;9.124;2022-11-20T00:32:30;4.40;99.90
2489;DHT22;1255;48.716;9.124;2022-11-20T00:34:57;4.40;99.90
2489;DHT22;1255;48.716;9.124;2022-11-20T00:37:24;4.40;99.90
2489;DHT22;1255;48.716;9.124;2022-11-20T00:39:52;4.40;99.90
2489;DHT22;1255;48.716;9.124;2022-11-20T00:42:19;4.40;99.90
2489;DHT22;1255;48.716;9.124;2022-11-20T00:44:45;4.40;99.90
2489;DHT22;1255;48.716;9.124;2022-11-20T00:47:12;4.40;99.90
2489;DHT22;1255;48.716;9.124;2022-11-20T00:49:39;4.50;99.90
2489;DHT22;1255;48.716;9.124;2022-11-20T00:52:06;4.50;99.90
2489;DHT22;1255;48.716;9.124;2022-11-20T00:54:32;4.50;99.90
2489;DHT22;1255;48.716;9.124;2022-11-20T00:57:00;4.50;99.90
2489;DHT22;1255;48.716;9.124;2022-11-20T00:59:27;4.50;99.90
2489;DHT22;1255;48.716;9.124;2022-11-20T01:01:54;4.50;99.90
2489;DHT22;1255;48.716;9.124;2022-11-20T01:04:21;4.50;99.90
2489;DHT22;1255;48.716;9.124;2022-11-20T01:06:47;4.50;99.90
2489;DHT22;1255;48.716;9.124;2022-11-20T01:09:14;4.50;99.90
2489;DHT22;1255;48.716;9.124;2022-11-20T01:11:42;4.50;99.90
2489;DHT22;1255;48.716;9.124;2022-11-20T01:14:13;4.40;99.90
2489;DHT22;1255;48.716;9.124;2022-11-20T01:16:42;4.40;99.90
2489;DHT22;1255;48.716;9.124;2022-11-20T01:19:11;4.40;99.90
2489;DHT22;1255;48.716;9.124;2022-11-20T01:21:41;4.30;99.90
2489;DHT22;1255;48.716;9.124;2022-11-20T01:24:10;4.30;99.90
2489;DHT22;1255;48.716;9.124;2022-11-20T01:26:39;4.30;99.90
2489;DHT22;1255;48.716;9.124;2022-11-20T01:29:08;4.20;99.90
2489;DHT22;1255;48.716;9.124;2022-11-20T01:31:38;4.10;99.90
2489;DHT22;1255;48.716;9.124;2022-11-20T01:34:07;4.10;99.90
2489;DHT22;1255;48.716;9.124;2022-11-20T01:36:36;4.10;99.90
2489;DHT22;1255;48.716;9.124;2022-11-20T01:39:04;4.00;99.90
2489;DHT22;1255;48.716;9.124;2022-11-20T01:41:33;4.00;99.90
2489;DHT22;1255;48.716;9.124;2022-11-20T01:44:20;3.90;99.90
2489;DHT22;1255;48.716;9.124;2022-11-20T01:46:54;3.90;99.90
2489;DHT22;1255;48.716;9.124;2022-11-20T01:49:24;3.80;99.90
2489;DHT22;1255;48.716;9.124;2022-11-20T01:51:53;3.80;99.90
2489;DHT22;1255;48.716;9.124;2022-11-20T01:54:25;3.70;99.90
2489;DHT22;1255;48.716;9.124;2022-11-20T01:56:56;3.70;99.90
2489;DHT22;1255;48.716;9.124;2022-11-20T01:59:24;3.70;99.90
2489;DHT22;1255;48.716;9.124;2022-11-20T02:01:54;3.60;99.90
2489;DHT22;1255;48.716;9.124;2022-11-20T02:04:21;3.60;99.90
2489;DHT22;1255;48.716;9.124;2022-11-20T02:06:50;3.60;99.90
2489;DHT22;1255;48.716;9.124;2022-11-20T02:09:18;3.60;99.90
2489;DHT22;1255;48.716;9.124;2022-11-20T02:11:45;3.60;99.90
2489;DHT22;1255;48.716;9.124;2022-11-20T02:14:11;3.50;99.90
2489;DHT22;1255;48.716;9.124;2022-11-20T02:16:40;3.50;99.90
2489;DHT22;1255;48.716;9.124;2022-11-20T02:19:19;3.50;99.90
2489;DHT22;1255;48.716;9.124;2022-11-20T02:21:54;3.40;99.90
2489;DHT22;1255;48.716;9.124;2022-11-20T02:24:24;3.40;99.90
2489;DHT22;1255;48.716;9.124;2022-11-20T02:26:54;3.40;99.90
2489;DHT22;1255;48.716;9.124;2022-11-20T02:29:24;3.40;99.90
2489;DHT22;1255;48.716;9.124;2022-11-20T02:31:54;3.40;99.90
2489;DHT22;1255;48.716;9.124;2022-11-20T02:34:21;3.40;99.90
2489;DHT22;1255;48.716;9.124;2022-11-20T02:36:48;3.40;99.90
2489;DHT22;1255;48.716;9.124;2022-11-20T02:39:16;3.40;99.90
2489;DHT22;1255;48.716;9.124;2022-11-20T02:41:44;3.40;99.90
2489;DHT22;1255;48.716;9.124;2022-11-20T02:44:11;3.50;99.90
2489;DHT22;1255;48.716;9.124;2022-11-20T02:46:38;3.50;99.90
2489;DHT22;1255;48.716;9.124;2022-11-20T02:49:05;3.50;99.90
2489;DHT22;1255;48.716;9.124;2022-11-20T02:51:32;3.60;99.90
2489;DHT22;1255;48.716;9.124;2022-11-20T02:53:59;3.60;99.90
2489;DHT22;1255;48.716;9.124;2022-11-20T02:56:26;3.60;99.90
2489;DHT22;1255;48.716;9.124;2022-11-20T02:58:54;3.70;99.90
2489;DHT22;1255;48.716;9.124;2022-11-20T03:01:21;3.70;99.90
2489;DHT22;1255;48.716;9.124;2022-11-20T03:03:47;3.70;99.90
2489;DHT22;1255;48.716;9.124;2022-11-20T03:06:15;3.80;99.90
2489;DHT22;1255;48.716;9.124;2022-11-20T03:08:42;3.80;99.90
2489;DHT22;1255;48.716;9.124;2022-11-20T03:11:09;3.80;99.90
2489;DHT22;1255;48.716;9.124;2022-11-20T03:13:36;3.90;99.90
2489;DHT22;1255;48.716;9.124;2022-11-20T03:16:09;3.90;99.90
2489;DHT22;1255;48.716;9.124;2022-11-20T03:18:37;4.00;99.90
2489;DHT22;1255;48.716;9.124;2022-11-20T03:21:04;4.00;99.90
2489;DHT22;1255;48.716;9.124;2022-11-20T03:23:32;4.00;99.90
2489;DHT22;1255;48.716;9.124;2022-11-20T03:26:09;4.10;99.90
2489;DHT22;1255;48.716;9.124;2022-11-20T03:28:36;4.00;99.90
2489;DHT22;1255;48.716;9.124;2022-11-20T03:31:08;4.00;99.90
2489;DHT22;1255;48.716;9.124;2022-11-20T03:33:36;4.00;99.90
2489;DHT22;1255;48.716;9.124;2022-11-20T03:36:03;3.90;99.90
2489;DHT22;1255;48.716;9.124;2022-11-20T03:38:30;3.90;99.90
2489;DHT22;1255;48.716;9.124;2022-11-20T03:40:59;3.80;99.90
2489;DHT22;1255;48.716;9.124;2022-11-20T03:43:26;3.80;99.90
2489;DHT22;1255;48.716;9.124;2022-11-20T03:45:53;3.70;99.90
2489;DHT22;1255;48.716;9.124;2022-11-20T03:48:21;3.70;99.90
2489;DHT22;1255;48.716;9.124;2022-11-20T03:50:48;3.70;99.90
2489;DHT22;1255;48.716;9.124;2022-11-20T03:53:15;3.60;99.90
2489;DHT22;1255;48.716;9.124;2022-11-20T03:55:42;3.60;99.90
2489;DHT22;1255;48.716;9.124;2022-11-20T03:58:09;3.60;99.90
2489;DHT22;1255;48.716;9.124;2022-11-20T04:00:36;3.50;99.90
2489;DHT22;1255;48.716;9.124;2022-11-20T04:03:03;3.40;99.90
2489;DHT22;1255;48.716;9.124;2022-11-20T04:05:32;3.50;99.90
2489;DHT22;1255;48.716;9.124;2022-11-20T04:07:59;3.50;99.90
2489;DHT22;1255;48.716;9.124;2022-11-20T04:10:26;3.50;99.90
2489;DHT22;1255;48.716;9.124;2022-11-20T04:12:53;3.40;99.90
2489;DHT22;1255;48.716;9.124;2022-11-20T04:15:20;3.40;99.90
2489;DHT22;1255;48.716;9.124;2022-11-20T04:17:46;3.40;99.90
2489;DHT22;1255;48.716;9.124;2022-11-20T04:20:13;3.40;99.90
2489;DHT22;1255;48.716;9.124;2022-11-20T04:22:41;3.30;99.90
2489;DHT22;1255;48.716;9.124;2022-11-20T04:25:08;3.40;99.90
2489;DHT22;1255;48.716;9.124;2022-11-20T04:27:35;3.30;99.90
2489;DHT22;1255;48.716;9.124;2022-11-20T04:30:02;3.30;99.90
2489;DHT22;1255;48.716;9.124;2022-11-20T04:32:29;3.30;99.90
2489;DHT22;1255;48.716;9.124;2022-11-20T04:34:56;3.30;99.90
2489;DHT22;1255;48.716;9.124;2022-11-20T04:37:22;3.30;99.90
2489;DHT22;1255;48.716;9.124;2022-11-20T04:39:50;3.30;99.90
2489;DHT22;1255;48.716;9.124;2022-11-20T04:42:17;3.40;99.90
2489;DHT22;1255;48.716;9.124;2022-11-20T04:44:56;3.40;99.90
2489;DHT22;1255;48.716;9.124;2022-11-20T04:47:24;3.40;99.90
2489;DHT22;1255;48.716;9.124;2022-11-20T04:49:50;3.40;99.90
2489;DHT22;1255;48.716;9.124;2022-11-20T04:52:17;3.50;99.90
2489;DHT22;1255;48.716;9.124;2022-11-20T04:54:44;3.50;99.90
2489;DHT22;1255;48.716;9.124;2022-11-20T04:57:14;3.60;99.90
2489;DHT22;1255;48.716;9.124;2022-11-20T04:59:41;3.60;99.90
2489;DHT22;1255;48.716;9.124;2022-11-20T05:02:08;3.70;99.90
2489;DHT22;1255;48.716;9.124;2022-11-20T05:04:35;3.70;99.90
2489;DHT22;1255;48.716;9.124;2022-11-20T05:07:02;3.70;99.90
2489;DHT22;1255;48.716;9.124;2022-11-20T05:09:29;3.80;99.90
2489;DHT22;1255;48.716;9.124;2022-11-20T05:11:56;3.80;99.90
2489;DHT22;1255;48.716;9.124;2022-11-20T05:14:24;3.90;99.90
2489;DHT22;1255;48.716;9.124;2022-11-20T05:16:51;3.80;99.90
2489;DHT22;1255;48.716;9.124;2022-11-20T05:19:18;3.90;99.90
2489;DHT22;1255;48.716;9.124;2022-11-20T05:21:44;3.90;99.90
2489;DHT22;1255;48.716;9.124;2022-11-20T05:24:11;3.90;99.90
2489;DHT22;1255;48.716;9.124;2022-11-20T05:26:38;3.90;99.90
2489;DHT22;1255;48.716;9.124;2022-11-20T05:29:05;4.00;99.90
2489;DHT22;1255;48.716;9.124;2022-11-20T05:31:33;4.00;99.90
2489;DHT22;1255;48.716;9.124;2022-11-20T05:33:59;4.00;99.90
2489;DHT22;1255;48.716;9.124;2022-11-20T05:36:26;4.00;99.90
2489;DHT22;1255;48.716;9.124;2022-11-20T05:38:53;4.10;99.90
2489;DHT22;1255;48.716;9.124;2022-11-20T05:41:20;4.10;99.90
2489;DHT22;1255;48.716;9.124;2022-11-20T05:43:48;4.10;99.90
2489;DHT22;1255;48.716;9.124;2022-11-20T05:46:17;4.10;99.90
2489;DHT22;1255;48.716;9.124;2022-11-20T05:48:46;4.10;99.90
2489;DHT22;1255;48.716;9.124;2022-11-20T05:51:16;4.10;99.90
2489;DHT22;1255;48.716;9.124;2022-11-20T05:53:43;4.10;99.90
2489;DHT22;1255;48.716;9.124;2022-11-20T05:56:12;4.10;99.90
2489;DHT22;1255;48.716;9.124;2022-11-20T05:58:40;4.10;99.90
2489;DHT22;1255;48.716;9.124;2022-11-20T06:01:09;4.10;99.90
2489;DHT22;1255;48.716;9.124;2022-11-20T06:03:36;4.10;99.90
2489;DHT22;1255;48.716;9.124;2022-11-20T06:06:05;4.20;99.90
2489;DHT22;1255;48.716;9.124;2022-11-20T06:08:32;4.20;99.90
2489;DHT22;1255;48.716;9.124;2022-11-20T06:11:03;4.20;99.90
2489;DHT22;1255;48.716;9.124;2022-11-20T06:13:30;4.20;99.90
2489;DHT22;1255;48.716;9.124;2022-11-20T06:15:57;4.20;99.90
2489;DHT22;1255;48.716;9.124;2022-11-20T06:18:25;4.30;99.90
2489;DHT22;1255;48.716;9.124;2022-11-20T06:20:59;4.30;99.90
2489;DHT22;1255;48.716;9.124;2022-11-20T06:23:29;4.40;99.90
2489;DHT22;1255;48.716;9.124;2022-11-20T06:25:56;4.40;99.90
2489;DHT22;1255;48.716;9.124;2022-11-20T06:28:22;4.40;99.90
2489;DHT22;1255;48.716;9.124;2022-11-20T06:30:49;4.40;99.90
2489;DHT22;1255;48.716;9.124;2022-11-20T06:33:16;4.50;99.90
2489;DHT22;1255;48.716;9.124;2022-11-20T06:35:43;4.50;99.90
2489;DHT22;1255;48.716;9.124;2022-11-20T06:38:09;4.50;99.90
2489;DHT22;1255;48.716;9.124;2022-11-20T06:40:39;4.50;99.90
2489;DHT22;1255;48.716;9.124;2022-11-20T06:43:07;4.50;99.90
2489;DHT22;1255;48.716;9.124;2022-11-20T06:45:34;4.50;99.90
2489;DHT22;1255;48.716;9.124;2022-11-20T06:48:00;4.60;99.90
2489;DHT22;1255;48.716;9.124;2022-11-20T06:50:27;4.60;99.90
2489;DHT22;1255;48.716;9.124;2022-11-20T06:52:54;4.60;99.90
2489;DHT22;1255;48.716;9.124;2022-11-20T06:55:20;4.60;99.90
2489;DHT22;1255;48.716;9.124;2022-11-20T06:57:50;4.60;99.90
2489;DHT22;1255;48.716;9.124;2022-11-20T07:00:17;4.70;99.90
2489;DHT22;1255;48.716;9.124;2022-11-20T07:02:44;4.70;99.90
2489;DHT22;1255;48.716;9.124;2022-11-20T07:05:11;4.70;99.90
2489;DHT22;1255;48.716;9.124;2022-11-20T07:07:37;4.70;99.90
2489;DHT22;1255;48.716;9.124;2022-11-20T07:10:05;4.70;99.90
2489;DHT22;1255;48.716;9.124;2022-11-20T07:12:32;4.70;99.90
2489;DHT22;1255;48.716;9.124;2022-11-20T07:15:00;4.60;99.90
2489;DHT22;1255;48.716;9.124;2022-11-20T07:17:27;4.70;99.90
2489;DHT22;1255;48.716;9.124;2022-11-20T07:19:53;4.70;99.90
2489;DHT22;1255;48.716;9.124;2022-11-20T07:22:20;4.70;99.90
2489;DHT22;1255;48.716;9.124;2022-11-20T07:24:47;4.70;99.90
2489;DHT22;1255;48.716;9.124;2022-11-20T07:27:14;4.80;99.90
2489;DHT22;1255;48.716;9.124;2022-11-20T07:29:40;4.80;99.90
2489;DHT22;1255;48.716;9.124;2022-11-20T07:32:08;4.90;99.90
2489;DHT22;1255;48.716;9.124;2022-11-20T07:34:35;4.90;99.90
2489;DHT22;1255;48.716;9.124;2022-11-20T07:37:02;4.90;99.90
2489;DHT22;1255;48.716;9.124;2022-11-20T07:39:29;4.90;99.90
2489;DHT22;1255;48.716;9.124;2022-11-20T07:41:55;4.90;99.90
2489;DHT22;1255;48.716;9.124;2022-11-20T07:44:22;5.00;99.90
2489;DHT22;1255;48.716;9.124;2022-11-20T07:46:49;5.00;99.90
2489;DHT22;1255;48.716;9.124;2022-11-20T07:49:17;5.00;99.90
2489;DHT22;1255;48.716;9.124;2022-11-20T07:51:44;5.00;99.90
2489;DHT22;1255;48.716;9.124;2022-11-20T07:54:10;5.10;99.90
2489;DHT22;1255;48.716;9.124;2022-11-20T07:56:37;5.30;99.90
2489;DHT22;1255;48.716;9.124;2022-11-20T07:59:04;5.40;99.90
2489;DHT22;1255;48.716;9.124;2022-11-20T08:01:31;5.40;99.90
2489;DHT22;1255;48.716;9.124;2022-11-20T08:03:57;5.40;99.90
2489;DHT22;1255;48.716;9.124;2022-11-20T08:06:25;5.50;99.90
2489;DHT22;1255;48.716;9.124;2022-11-20T08:08:52;5.50;99.90
2489;DHT22;1255;48.716;9.124;2022-11-20T08:11:19;5.50;99.90
2489;DHT22;1255;48.716;9.124;2022-11-20T08:14:03;5.50;99.90
2489;DHT22;1255;48.716;9.124;2022-11-20T08:16:39;5.60;99.90
2489;DHT22;1255;48.716;9.124;2022-11-20T08:19:06;5.50;99.90
2489;DHT22;1255;48.716;9.124;2022-11-20T08:21:35;5.60;99.90
2489;DHT22;1255;48.716;9.124;2022-11-20T08:24:02;5.60;99.90
2489;DHT22;1255;48.716;9.124;2022-11-20T08:26:28;5.60;99.90
2489;DHT22;1255;48.716;9.124;2022-11-20T08:28:56;5.60;99.90
2489;DHT22;1255;48.716;9.124;2022-11-20T08:31:24;5.70;99.90
2489;DHT22;1255;48.716;9.124;2022-11-20T08:33:52;5.70;99.90
2489;DHT22;1255;48.716;9.124;2022-11-20T08:36:20;5.70;99.90
2489;DHT22;1255;48.716;9.124;2022-11-20T08:38:48;5.80;99.90
2489;DHT22;1255;48.716;9.124;2022-11-20T08:41:15;5.80;99.90
2489;DHT22;1255;48.716;9.124;2022-11-20T08:43:54;5.80;99.90
2489;DHT22;1255;48.716;9.124;2022-11-20T08:46:22;5.90;99.90
2489;DHT22;1255;48.716;9.124;2022-11-20T08:48:48;5.90;99.90
2489;DHT22;1255;48.716;9.124;2022-11-20T08:51:15;6.00;99.90
2489;DHT22;1255;48.716;9.124;2022-11-20T08:53:43;6.10;99.90
2489;DHT22;1255;48.716;9.124;2022-11-20T08:56:11;6.20;99.90
2489;DHT22;1255;48.716;9.124;2022-11-20T08:58:38;6.30;99.90
2489;DHT22;1255;48.716;9.124;2022-11-20T09:01:05;6.40;99.90
2489;DHT22;1255;48.716;9.124;2022-11-20T09:03:32;6.60;99.90
2489;DHT22;1255;48.716;9.124;2022-11-20T09:05:59;6.70;99.90
2489;DHT22;1255;48.716;9.124;2022-11-20T09:08:27;6.90;99.90
2489;DHT22;1255;48.716;9.124;2022-11-20T09:10:55;7.00;99.90
2489;DHT22;1255;48.716;9.124;2022-11-20T09:13:24;7.00;99.90
2489;DHT22;1255;48.716;9.124;2022-11-20T09:15:54;7.10;99.90
2489;DHT22;1255;48.716;9.124;2022-11-20T09:18:22;7.10;99.90
2489;DHT22;1255;48.716;9.124;2022-11-20T09:20:49;6.90;99.90
2489;DHT22;1255;48.716;9.124;2022-11-20T09:23:16;6.80;99.90
2489;DHT22;1255;48.716;9.124;2022-11-20T09:25:43;6.70;99.90
2489;DHT22;1255;48.716;9.124;2022-11-20T09:28:10;6.70;99.90
2489;DHT22;1255;48.716;9.124;2022-11-20T09:30:38;6.80;99.90
2489;DHT22;1255;48.716;9.124;2022-11-20T09:33:05;6.80;99.90
2489;DHT22;1255;48.716;9.124;2022-11-20T09:35:33;6.80;99.90
2489;DHT22;1255;48.716;9.124;2022-11-20T09:38:05;6.70;99.90
2489;DHT22;1255;48.716;9.124;2022-11-20T09:40:32;6.70;99.90
2489;DHT22;1255;48.716;9.124;2022-11-20T09:43:04;6.70;99.90
2489;DHT22;1255;48.716;9.124;2022-11-20T09:45:47;6.60;99.90
2489;DHT22;1255;48.716;9.124;2022-11-20T09:48:25;6.50;99.90
2489;DHT22;1255;48.716;9.124;2022-11-20T09:51:00;6.50;99.90
2489;DHT22;1255;48.716;9.124;2022-11-20T09:53:39;6.50;99.90
2489;DHT22;1255;48.716;9.124;2022-11-20T09:56:10;6.50;99.90
2489;DHT22;1255;48.716;9.124;2022-11-20T09:58:40;6.50;99.90
2489;DHT22;1255;48.716;9.124;2022-11-20T10:01:12;6.50;99.90
2489;DHT22;1255;48.716;9.124;2022-11-20T10:03:49;6.50;99.90
2489;DHT22;1255;48.716;9.124;2022-11-20T10:06:28;6.50;99.90
2489;DHT22;1255;48.716;9.124;2022-11-20T10:09:04;6.50;99.90
2489;DHT22;1255;48.716;9.124;2022-11-20T10:11:38;6.50;99.90
2489;DHT22;1255;48.716;9.124;2022-11-20T10:14:16;6.40;99.90
2489;DHT22;1255;48.716;9.124;2022-11-20T10:16:52;6.40;99.90
2489;DHT22;1255;48.716;9.124;2022-11-20T10:19:40;6.40;99.90
2489;DHT22;1255;48.716;9.124;2022-11-20T10:22:17;6.40;99.90
2489;DHT22;1255;48.716;9.124;2022-11-20T10:24:52;6.50;99.90
2489;DHT22;1255;48.716;9.124;2022-11-20T10:27:34;6.60;99.90
2489;DHT22;1255;48.716;9.124;2022-11-20T10:30:09;6.60;99.90
2489;DHT22;1255;48.716;9.124;2022-11-20T10:32:39;6.70;99.90
2489;DHT22;1255;48.716;9.124;2022-11-20T10:35:16;6.70;99.90
2489;DHT22;1255;48.716;9.124;2022-11-20T10:37:49;6.80;99.90
2489;DHT22;1255;48.716;9.124;2022-11-20T10:40:22;6.80;99.90
2489;DHT22;1255;48.716;9.124;2022-11-20T10:42:53;6.80;99.90
2489;DHT22;1255;48.716;9.124;2022-11-20T10:45:38;6.80;99.90
2489;DHT22;1255;48.716;9.124;2022-11-20T10:48:15;6.90;99.90
2489;DHT22;1255;48.716;9.124;2022-11-20T10:50:57;6.90;99.90
2489;DHT22;1255;48.716;9.124;2022-11-20T10:53:40;6.80;99.90
2489;DHT22;1255;48.716;9.124;2022-11-20T10:56:17;6.70;99.90
2489;DHT22;1255;48.716;9.124;2022-11-20T10:58:52;6.70;99.90
2489;DHT22;1255;48.716;9.124;2022-11-20T11:01:21;6.70;99.90
2489;DHT22;1255;48.716;9.124;2022-11-20T11:03:50;6.60;99.90
2489;DHT22;1255;48.716;9.124;2022-11-20T11:06:23;6.60;99.90
2489;DHT22;1255;48.716;9.124;2022-11-20T11:08:56;6.60;99.90
2489;DHT22;1255;48.716;9.124;2022-11-20T11:11:28;6.60;99.90
2489;DHT22;1255;48.716;9.124;2022-11-20T11:14:05;6.60;99.90
2489;DHT22;1255;48.716;9.124;2022-11-20T11:16:32;6.70;99.90
2489;DHT22;1255;48.716;9.124;2022-11-20T11:19:05;6.80;99.90
2489;DHT22;1255;48.716;9.124;2022-11-20T11:21:33;6.80;99.90
2489;DHT22;1255;48.716;9.124;2022-11-20T11:24:03;6.80;99.90
2489;DHT22;1255;48.716;9.124;2022-11-20T11:26:30;6.80;99.90
2489;DHT22;1255;48.716;9.124;2022-11-20T11:28:58;6.90;99.90
2489;DHT22;1255;48.716;9.124;2022-11-20T11:31:26;7.00;99.90
2489;DHT22;1255;48.716;9.124;2022-11-20T11:34:05;7.20;99.90
2489;DHT22;1255;48.716;9.124;2022-11-20T11:36:33;7.50;99.90
2489;DHT22;1255;48.716;9.124;2022-11-20T11:39:02;8.30;99.90
2489;DHT22;1255;48.716;9.124;2022-11-20T11:41:32;9.70;99.90
2489;DHT22;1255;48.716;9.124;2022-11-20T11:44:12;11.30;99.90
2489;DHT22;1255;48.716;9.124;2022-11-20T11:46:59;12.60;99.90
2489;DHT22;1255;48.716;9.124;2022-11-20T11:49:28;14.00;99.90
2489;DHT22;1255;48.716;9.124;2022-11-20T11:52:03;15.20;99.90
2489;DHT22;1255;48.716;9.124;2022-11-20T11:54:36;16.10;99.90
2489;DHT22;1255;48.716;9.124;2022-11-20T11:57:11;16.20;99.90
2489;DHT22;1255;48.716;9.124;2022-11-20T11:59:47;15.80;99.90
2489;DHT22;1255;48.716;9.124;2022-11-20T12:02:27;14.90;99.90
2489;DHT22;1255;48.716;9.124;2022-11-20T12:05:02;14.30;99.90
2489;DHT22;1255;48.716;9.124;2022-11-20T12:07:39;13.40;99.90
2489;DHT22;1255;48.716;9.124;2022-11-20T12:10:19;13.20;99.90
2489;DHT22;1255;48.716;9.124;2022-11-20T12:12:51;12.80;99.90
2489;DHT22;1255;48.716;9.124;2022-11-20T12:15:28;12.20;99.90
2489;DHT22;1255;48.716;9.124;2022-11-20T12:17:55;11.90;99.90
2489;DHT22;1255;48.716;9.124;2022-11-20T12:20:27;11.60;99.90
2489;DHT22;1255;48.716;9.124;2022-11-20T12:22:59;11.50;99.90
2489;DHT22;1255;48.716;9.124;2022-11-20T12:25:30;11.70;99.90
2489;DHT22;1255;48.716;9.124;2022-11-20T12:28:15;11.80;99.90
2489;DHT22;1255;48.716;9.124;2022-11-20T12:30:54;11.60;99.90
2489;DHT22;1255;48.716;9.124;2022-11-20T12:33:46;11.30;99.90
2489;DHT22;1255;48.716;9.124;2022-11-20T12:36:27;11.00;99.90
2489;DHT22;1255;48.716;9.124;2022-11-20T12:39:08;10.70;99.90
2489;DHT22;1255;48.716;9.124;2022-11-20T12:41:58;10.40;99.90
2489;DHT22;1255;48.716;9.124;2022-11-20T12:45:10;9.90;99.90
2489;DHT22;1255;48.716;9.124;2022-11-20T12:47:53;9.40;99.90
2489;DHT22;1255;48.716;9.124;2022-11-20T12:50:31;9.00;99.90
2489;DHT22;1255;48.716;9.124;2022-11-20T12:53:04;8.80;99.90
2489;DHT22;1255;48.716;9.124;2022-11-20T12:55:40;8.70;99.90
2489;DHT22;1255;48.716;9.124;2022-11-20T12:58:12;9.00;99.90
2489;DHT22;1255;48.716;9.124;2022-11-20T13:00:54;9.30;99.90
2489;DHT22;1255;48.716;9.124;2022-11-20T13:03:39;9.60;99.90
2489;DHT22;1255;48.716;9.124;2022-11-20T13:06:17;9.90;99.90
2489;DHT22;1255;48.716;9.124;2022-11-20T13:08:49;10.10;99.90
2489;DHT22;1255;48.716;9.124;2022-11-20T13:11:24;9.90;99.90
2489;DHT22;1255;48.716;9.124;2022-11-20T13:14:11;9.70;99.90
2489;DHT22;1255;48.716;9.124;2022-11-20T13:16:46;9.50;99.90
2489;DHT22;1255;48.716;9.124;2022-11-20T13:19:16;9.20;99.90
2489;DHT22;1255;48.716;9.124;2022-11-20T13:21:44;9.00;99.90
2489;DHT22;1255;48.716;9.124;2022-11-20T13:24:24;9.00;99.90
2489;DHT22;1255;48.716;9.124;2022-11-20T13:27:03;9.00;99.90
2489;DHT22;1255;48.716;9.124;2022-11-20T13:29:31;9.00;99.90
2489;DHT22;1255;48.716;9.124;2022-11-20T13:32:15;8.90;99.90
2489;DHT22;1255;48.716;9.124;2022-11-20T13:34:52;8.90;99.90
2489;DHT22;1255;48.716;9.124;2022-11-20T13:37:27;9.20;99.90
2489;DHT22;1255;48.716;9.124;2022-11-20T13:40:05;9.50;99.90
2489;DHT22;1255;48.716;9.124;2022-11-20T13:42:37;9.60;99.90
2489;DHT22;1255;48.716;9.124;2022-11-20T13:45:22;9.40;99.90
2489;DHT22;1255;48.716;9.124;2022-11-20T13:51:23;9.20;99.90
2489;DHT22;1255;48.716;9.124;2022-11-20T13:56:59;9.10;99.90
2489;DHT22;1255;48.716;9.124;2022-11-20T13:59:42;8.90;99.90
2489;DHT22;1255;48.716;9.124;2022-11-20T14:02:14;8.70;99.90
2489;DHT22;1255;48.716;9.124;2022-11-20T14:04:45;8.40;99.90
2489;DHT22;1255;48.716;9.124;2022-11-20T14:07:13;8.40;99.90
2489;DHT22;1255;48.716;9.124;2022-11-20T14:09:49;8.30;99.90
2489;DHT22;1255;48.716;9.124;2022-11-20T14:12:20;8.30;99.90
2489;DHT22;1255;48.716;9.124;2022-11-20T14:14:49;8.10;99.90
2489;DHT22;1255;48.716;9.124;2022-11-20T14:17:19;7.90;99.90
2489;DHT22;1255;48.716;9.124;2022-11-20T14:19:50;7.70;99.90
2489;DHT22;1255;48.716;9.124;2022-11-20T14:22:20;7.60;99.90
2489;DHT22;1255;48.716;9.124;2022-11-20T14:24:49;7.50;99.90
2489;DHT22;1255;48.716;9.124;2022-11-20T14:27:19;7.50;99.90
2489;DHT22;1255;48.716;9.124;2022-11-20T14:29:48;7.40;99.90
2489;DHT22;1255;48.716;9.124;2022-11-20T14:32:17;7.50;99.90
2489;DHT22;1255;48.716;9.124;2022-11-20T14:34:47;7.40;99.90
2489;DHT22;1255;48.716;9.124;2022-11-20T14:37:19;7.50;99.90
2489;DHT22;1255;48.716;9.124;2022-11-20T14:39:50;7.50;99.90
2489;DHT22;1255;48.716;9.124;2022-11-20T14:42:22;7.40;99.90
2489;DHT22;1255;48.716;9.124;2022-11-20T14:44:51;7.40;99.90
2489;DHT22;1255;48.716;9.124;2022-11-20T14:47:26;7.40;99.90
2489;DHT22;1255;48.716;9.124;2022-11-20T14:49:55;7.40;99.90
2489;DHT22;1255;48.716;9.124;2022-11-20T14:52:25;7.30;99.90
2489;DHT22;1255;48.716;9.124;2022-11-20T14:54:57;7.20;99.90
2489;DHT22;1255;48.716;9.124;2022-11-20T14:57:28;7.10;99.90
2489;DHT22;1255;48.716;9.124;2022-11-20T15:00:17;7.10;99.90
2489;DHT22;1255;48.716;9.124;2022-11-20T15:02:47;7.00;99.90
2489;DHT22;1255;48.716;9.124;2022-11-20T15:05:17;6.90;99.90
2489;DHT22;1255;48.716;9.124;2022-11-20T15:07:46;6.80;99.90
2489;DHT22;1255;48.716;9.124;2022-11-20T15:10:22;6.70;99.90
2489;DHT22;1255;48.716;9.124;2022-11-20T15:12:53;6.60;99.90
2489;DHT22;1255;48.716;9.124;2022-11-20T15:15:28;6.50;99.90
2489;DHT22;1255;48.716;9.124;2022-11-20T15:17:57;6.50;99.90
2489;DHT22;1255;48.716;9.124;2022-11-20T15:20:30;6.40;99.90
2489;DHT22;1255;48.716;9.124;2022-11-20T15:23:01;6.30;99.90
2489;DHT22;1255;48.716;9.124;2022-11-20T15:25:29;6.30;99.90
2489;DHT22;1255;48.716;9.124;2022-11-20T15:28:00;6.20;99.90
2489;DHT22;1255;48.716;9.124;2022-11-20T15:30:28;6.20;99.90
2489;DHT22;1255;48.716;9.124;2022-11-20T15:32:55;6.20;99.90
2489;DHT22;1255;48.716;9.124;2022-11-20T15:35:29;6.10;99.90
2489;DHT22;1255;48.716;9.124;2022-11-20T15:37:58;6.10;99.90
2489;DHT22;1255;48.716;9.124;2022-11-20T15:40:25;6.10;99.90
2489;DHT22;1255;48.716;9.124;2022-11-20T15:42:52;5.90;99.90
2489;DHT22;1255;48.716;9.124;2022-11-20T15:45:39;5.90;99.90
2489;DHT22;1255;48.716;9.124;2022-11-20T15:48:10;5.90;99.90
2489;DHT22;1255;48.716;9.124;2022-11-20T15:50:40;5.90;99.90
2489;DHT22;1255;48.716;9.124;2022-11-20T15:53:08;5.80;99.90
2489;DHT22;1255;48.716;9.124;2022-11-20T15:55:36;5.80;99.90
2489;DHT22;1255;48.716;9.124;2022-11-20T15:58:02;5.80;99.90
2489;DHT22;1255;48.716;9.124;2022-11-20T16:00:29;5.70;99.90
2489;DHT22;1255;48.716;9.124;2022-11-20T16:02:57;5.70;99.90
2489;DHT22;1255;48.716;9.124;2022-11-20T16:05:28;5.70;99.90
2489;DHT22;1255;48.716;9.124;2022-11-20T16:07:54;5.70;99.90
2489;DHT22;1255;48.716;9.124;2022-11-20T16:10:21;5.70;99.90
2489;DHT22;1255;48.716;9.124;2022-11-20T16:12:49;5.60;99.90
2489;DHT22;1255;48.716;9.124;2022-11-20T16:15:33;5.60;99.90
2489;DHT22;1255;48.716;9.124;2022-11-20T16:18:15;5.60;99.90
2489;DHT22;1255;48.716;9.124;2022-11-20T16:20:43;5.60;99.90
2489;DHT22;1255;48.716;9.124;2022-11-20T16:23:10;5.60;99.90
2489;DHT22;1255;48.716;9.124;2022-11-20T16:25:36;5.60;99.90
2489;DHT22;1255;48.716;9.124;2022-11-20T16:28:03;5.60;99.90
2489;DHT22;1255;48.716;9.124;2022-11-20T16:30:31;5.70;99.90
2489;DHT22;1255;48.716;9.124;2022-11-20T16:32:58;5.70;99.90
2489;DHT22;1255;48.716;9.124;2022-11-20T16:35:27;5.70;99.90
2489;DHT22;1255;48.716;9.124;2022-11-20T16:37:54;5.70;99.90
2489;DHT22;1255;48.716;9.124;2022-11-20T16:40:21;5.70;99.90
2489;DHT22;1255;48.716;9.124;2022-11-20T16:42:47;5.70;99.90